sensor_id;sensor_type;location;lat;lon;timestamp;P1;durP1;ratioP1;P2;durP2;ratioP2
22060;SDS011;11194;48.092;-1.382;2022-08-19T00:01:21;6.55;;;5.47;;
22060;SDS011;11194;48.092;-1.382;2022-08-19T00:03:47;8.13;;;5.35;;
22060;SDS011;11194;48.092;-1.382;2022-08-19T00:06:13;5.38;;;4.50;;
22060;SDS011;11194;48.092;-1.382;2022-08-19T00:08:39;7.90;;;4.32;;
22060;SDS011;11194;48.092;-1.382;2022-08-19T00:11:06;6.22;;;3.75;;
22060;SDS011;11194;48.092;-1.382;2022-08-19T00:13:32;5.05;;;3.60;;
22060;SDS011;11194;48.092;-1.382;2022-08-19T00:15:58;4.43;;;3.22;;
22060;SDS011;11194;48.092;-1.382;2022-08-19T00:18:25;4.07;;;3.10;;
22060;SDS011;11194;48.092;-1.382;2022-08-19T00:20:51;5.03;;;3.00;;
22060;SDS011;11194;48.092;-1.382;2022-08-19T00:23:17;4.35;;;3.08;;
22060;SDS011;11194;48.092;-1.382;2022-08-19T00:25:44;4.95;;;3.05;;
22060;SDS011;11194;48.092;-1.382;2022-08-19T00:28:10;4.18;;;3.13;;
22060;SDS011;11194;48.092;-1.382;2022-08-19T00:30:36;3.20;;;2.75;;
22060;SDS011;11194;48.092;-1.382;2022-08-19T00:33:02;3.13;;;2.75;;
22060;SDS011;11194;48.092;-1.382;2022-08-19T00:35:28;4.38;;;3.20;;
22060;SDS011;11194;48.092;-1.382;2022-08-19T00:37:54;5.60;;;3.40;;
22060;SDS011;11194;48.092;-1.382;2022-08-19T00:40:21;6.60;;;3.50;;
22060;SDS011;11194;48.092;-1.382;2022-08-19T00:42:47;4.30;;;3.33;;
22060;SDS011;11194;48.092;-1.382;2022-08-19T00:45:17;4.95;;;3.33;;
22060;SDS011;11194;48.092;-1.382;2022-08-19T00:47:44;5.15;;;3.25;;
22060;SDS011;11194;48.092;-1.382;2022-08-19T00:50:11;4.88;;;2.80;;
22060;SDS011;11194;48.092;-1.382;2022-08-19T00:52:39;3.85;;;3.05;;
22060;SDS011;11194;48.092;-1.382;2022-08-19T00:55:09;4.75;;;2.97;;
22060;SDS011;11194;48.092;-1.382;2022-08-19T00:57:38;4.85;;;2.65;;
22060;SDS011;11194;48.092;-1.382;2022-08-19T01:00:06;3.67;;;3.03;;
22060;SDS011;11194;48.092;-1.382;2022-08-19T01:02:34;6.82;;;2.83;;
22060;SDS011;11194;48.092;-1.382;2022-08-19T01:05:01;3.67;;;2.92;;
22060;SDS011;11194;48.092;-1.382;2022-08-19T01:07:28;4.05;;;2.90;;
22060;SDS011;11194;48.092;-1.382;2022-08-19T01:09:54;3.83;;;2.80;;
22060;SDS011;11194;48.092;-1.382;2022-08-19T01:12:20;4.28;;;2.80;;
22060;SDS011;11194;48.092;-1.382;2022-08-19T01:14:46;5.03;;;2.60;;
22060;SDS011;11194;48.092;-1.382;2022-08-19T01:17:13;3.58;;;2.92;;
22060;SDS011;11194;48.092;-1.382;2022-08-19T01:19:41;4.20;;;2.85;;
22060;SDS011;11194;48.092;-1.382;2022-08-19T01:24:49;4.70;;;2.78;;
22060;SDS011;11194;48.092;-1.382;2022-08-19T01:27:15;5.45;;;2.85;;
22060;SDS011;11194;48.092;-1.382;2022-08-19T01:29:42;3.35;;;2.70;;
22060;SDS011;11194;48.092;-1.382;2022-08-19T04:01:24;5.05;;;3.72;;
22060;SDS011;11194;48.092;-1.382;2022-08-19T04:03:55;5.05;;;3.95;;
22060;SDS011;11194;48.092;-1.382;2022-08-19T04:06:22;5.70;;;3.67;;
22060;SDS011;11194;48.092;-1.382;2022-08-19T04:08:49;7.20;;;3.65;;
22060;SDS011;11194;48.092;-1.382;2022-08-19T04:11:17;7.80;;;3.80;;
22060;SDS011;11194;48.092;-1.382;2022-08-19T04:13:45;4.10;;;3.58;;
22060;SDS011;11194;48.092;-1.382;2022-08-19T04:16:11;5.45;;;3.60;;
22060;SDS011;11194;48.092;-1.382;2022-08-19T04:18:38;5.93;;;3.50;;
22060;SDS011;11194;48.092;-1.382;2022-08-19T04:21:04;6.70;;;3.58;;
22060;SDS011;11194;48.092;-1.382;2022-08-19T04:23:31;4.70;;;3.50;;
22060;SDS011;11194;48.092;-1.382;2022-08-19T04:25:57;5.55;;;3.55;;
22060;SDS011;11194;48.092;-1.382;2022-08-19T04:28:23;5.07;;;3.25;;
22060;SDS011;11194;48.092;-1.382;2022-08-19T04:30:51;5.75;;;3.53;;
22060;SDS011;11194;48.092;-1.382;2022-08-19T04:33:18;4.10;;;3.33;;
22060;SDS011;11194;48.092;-1.382;2022-08-19T04:35:46;4.45;;;3.20;;
22060;SDS011;11194;48.092;-1.382;2022-08-19T04:38:13;4.47;;;3.30;;
22060;SDS011;11194;48.092;-1.382;2022-08-19T04:40:40;4.15;;;3.40;;
22060;SDS011;11194;48.092;-1.382;2022-08-19T04:43:25;6.22;;;3.22;;
22060;SDS011;11194;48.092;-1.382;2022-08-19T04:45:52;4.05;;;3.33;;
22060;SDS011;11194;48.092;-1.382;2022-08-19T04:48:18;5.32;;;3.47;;
22060;SDS011;11194;48.092;-1.382;2022-08-19T04:50:55;4.03;;;3.03;;
22060;SDS011;11194;48.092;-1.382;2022-08-19T04:53:23;4.25;;;3.33;;
22060;SDS011;11194;48.092;-1.382;2022-08-19T04:55:50;4.65;;;3.47;;
22060;SDS011;11194;48.092;-1.382;2022-08-19T04:58:16;5.05;;;3.30;;
22060;SDS011;11194;48.092;-1.382;2022-08-19T05:00:42;4.82;;;3.33;;
22060;SDS011;11194;48.092;-1.382;2022-08-19T05:03:08;5.28;;;3.25;;
22060;SDS011;11194;48.092;-1.382;2022-08-19T05:05:41;6.05;;;4.13;;
22060;SDS011;11194;48.092;-1.382;2022-08-19T05:08:07;5.18;;;3.22;;
22060;SDS011;11194;48.092;-1.382;2022-08-19T05:10:39;6.43;;;3.50;;
22060;SDS011;11194;48.092;-1.382;2022-08-19T05:13:06;5.00;;;3.63;;
22060;SDS011;11194;48.092;-1.382;2022-08-19T05:15:34;4.30;;;3.47;;
22060;SDS011;11194;48.092;-1.382;2022-08-19T05:18:01;4.82;;;3.92;;
22060;SDS011;11194;48.092;-1.382;2022-08-19T05:20:45;4.55;;;3.30;;
22060;SDS011;11194;48.092;-1.382;2022-08-19T05:23:30;4.40;;;3.08;;
22060;SDS011;11194;48.092;-1.382;2022-08-19T05:25:56;4.97;;;3.33;;
22060;SDS011;11194;48.092;-1.382;2022-08-19T05:28:22;4.78;;;3.50;;
22060;SDS011;11194;48.092;-1.382;2022-08-19T05:30:48;5.43;;;3.50;;
22060;SDS011;11194;48.092;-1.382;2022-08-19T05:33:16;5.05;;;3.67;;
22060;SDS011;11194;48.092;-1.382;2022-08-19T05:35:42;4.63;;;3.30;;
22060;SDS011;11194;48.092;-1.382;2022-08-19T05:38:09;4.22;;;3.10;;
22060;SDS011;11194;48.092;-1.382;2022-08-19T05:40:35;5.32;;;3.63;;
22060;SDS011;11194;48.092;-1.382;2022-08-19T05:43:02;6.60;;;3.90;;
22060;SDS011;11194;48.092;-1.382;2022-08-19T05:45:29;3.75;;;3.10;;
22060;SDS011;11194;48.092;-1.382;2022-08-19T05:47:55;4.85;;;3.40;;
22060;SDS011;11194;48.092;-1.382;2022-08-19T05:50:21;4.10;;;3.58;;
22060;SDS011;11194;48.092;-1.382;2022-08-19T05:52:47;6.18;;;3.75;;
22060;SDS011;11194;48.092;-1.382;2022-08-19T05:55:13;5.05;;;3.72;;
22060;SDS011;11194;48.092;-1.382;2022-08-19T05:57:39;4.18;;;3.05;;
22060;SDS011;11194;48.092;-1.382;2022-08-19T06:00:06;4.97;;;3.13;;
22060;SDS011;11194;48.092;-1.382;2022-08-19T06:02:36;3.80;;;3.28;;
22060;SDS011;11194;48.092;-1.382;2022-08-19T06:05:03;4.43;;;3.50;;
22060;SDS011;11194;48.092;-1.382;2022-08-19T06:07:31;5.45;;;3.58;;
22060;SDS011;11194;48.092;-1.382;2022-08-19T06:09:57;4.05;;;3.30;;
22060;SDS011;11194;48.092;-1.382;2022-08-19T06:12:23;4.85;;;3.88;;
22060;SDS011;11194;48.092;-1.382;2022-08-19T06:15:00;6.65;;;3.72;;
22060;SDS011;11194;48.092;-1.382;2022-08-19T06:17:26;4.70;;;3.22;;
22060;SDS011;11194;48.092;-1.382;2022-08-19T06:19:54;4.40;;;3.50;;
22060;SDS011;11194;48.092;-1.382;2022-08-19T06:22:21;4.63;;;4.05;;
22060;SDS011;11194;48.092;-1.382;2022-08-19T06:24:47;4.95;;;3.88;;
22060;SDS011;11194;48.092;-1.382;2022-08-19T06:27:17;5.05;;;3.80;;
22060;SDS011;11194;48.092;-1.382;2022-08-19T06:29:43;6.47;;;4.43;;
22060;SDS011;11194;48.092;-1.382;2022-08-19T06:32:12;6.10;;;4.10;;
22060;SDS011;11194;48.092;-1.382;2022-08-19T06:34:38;6.68;;;4.60;;
22060;SDS011;11194;48.092;-1.382;2022-08-19T06:37:05;6.20;;;4.28;;
22060;SDS011;11194;48.092;-1.382;2022-08-19T06:39:34;5.57;;;3.90;;
22060;SDS011;11194;48.092;-1.382;2022-08-19T06:42:01;7.75;;;4.25;;
22060;SDS011;11194;48.092;-1.382;2022-08-19T06:44:31;4.90;;;4.40;;
22060;SDS011;11194;48.092;-1.382;2022-08-19T06:47:00;6.50;;;4.72;;
22060;SDS011;11194;48.092;-1.382;2022-08-19T06:49:27;6.05;;;4.38;;
22060;SDS011;11194;48.092;-1.382;2022-08-19T06:51:55;6.97;;;4.60;;
22060;SDS011;11194;48.092;-1.382;2022-08-19T06:54:22;8.40;;;4.55;;
22060;SDS011;11194;48.092;-1.382;2022-08-19T06:56:48;5.88;;;4.32;;
22060;SDS011;11194;48.092;-1.382;2022-08-19T06:59:15;5.05;;;4.20;;
22060;SDS011;11194;48.092;-1.382;2022-08-19T07:01:44;5.80;;;4.45;;
22060;SDS011;11194;48.092;-1.382;2022-08-19T07:04:12;5.55;;;4.00;;
22060;SDS011;11194;48.092;-1.382;2022-08-19T07:06:38;6.57;;;4.32;;
22060;SDS011;11194;48.092;-1.382;2022-08-19T07:09:05;7.53;;;5.00;;
22060;SDS011;11194;48.092;-1.382;2022-08-19T07:11:31;6.90;;;4.82;;
22060;SDS011;11194;48.092;-1.382;2022-08-19T07:13:58;5.88;;;4.75;;
22060;SDS011;11194;48.092;-1.382;2022-08-19T07:16:24;5.97;;;4.55;;
22060;SDS011;11194;48.092;-1.382;2022-08-19T07:18:50;6.03;;;4.38;;
22060;SDS011;11194;48.092;-1.382;2022-08-19T07:21:18;7.40;;;5.00;;
22060;SDS011;11194;48.092;-1.382;2022-08-19T07:23:45;7.43;;;4.68;;
22060;SDS011;11194;48.092;-1.382;2022-08-19T07:26:13;6.72;;;4.82;;
22060;SDS011;11194;48.092;-1.382;2022-08-19T07:28:40;6.88;;;4.43;;
22060;SDS011;11194;48.092;-1.382;2022-08-19T07:31:09;6.30;;;4.60;;
22060;SDS011;11194;48.092;-1.382;2022-08-19T07:33:35;7.00;;;4.35;;
22060;SDS011;11194;48.092;-1.382;2022-08-19T07:36:03;7.13;;;4.07;;
22060;SDS011;11194;48.092;-1.382;2022-08-19T07:38:31;5.80;;;4.00;;
22060;SDS011;11194;48.092;-1.382;2022-08-19T07:40:57;6.18;;;4.20;;
22060;SDS011;11194;48.092;-1.382;2022-08-19T07:43:23;5.25;;;4.07;;
22060;SDS011;11194;48.092;-1.382;2022-08-19T07:45:51;7.10;;;3.90;;
22060;SDS011;11194;48.092;-1.382;2022-08-19T07:48:18;5.00;;;3.78;;
22060;SDS011;11194;48.092;-1.382;2022-08-19T07:50:44;6.80;;;3.90;;
22060;SDS011;11194;48.092;-1.382;2022-08-19T07:53:10;6.95;;;4.32;;
22060;SDS011;11194;48.092;-1.382;2022-08-19T07:55:37;5.53;;;3.60;;
22060;SDS011;11194;48.092;-1.382;2022-08-19T07:58:03;5.25;;;4.00;;
22060;SDS011;11194;48.092;-1.382;2022-08-19T08:00:29;4.47;;;3.42;;
22060;SDS011;11194;48.092;-1.382;2022-08-19T08:02:55;5.30;;;3.88;;
22060;SDS011;11194;48.092;-1.382;2022-08-19T08:05:24;7.40;;;3.75;;
22060;SDS011;11194;48.092;-1.382;2022-08-19T08:08:10;8.77;;;4.38;;
22060;SDS011;11194;48.092;-1.382;2022-08-19T08:10:55;6.03;;;3.42;;
22060;SDS011;11194;48.092;-1.382;2022-08-19T08:13:21;6.15;;;3.47;;
22060;SDS011;11194;48.092;-1.382;2022-08-19T08:15:47;5.07;;;3.40;;
22060;SDS011;11194;48.092;-1.382;2022-08-19T08:18:13;5.35;;;3.70;;
22060;SDS011;11194;48.092;-1.382;2022-08-19T08:20:39;5.43;;;3.70;;
22060;SDS011;11194;48.092;-1.382;2022-08-19T08:23:05;4.82;;;3.22;;
22060;SDS011;11194;48.092;-1.382;2022-08-19T08:25:50;6.05;;;3.85;;
22060;SDS011;11194;48.092;-1.382;2022-08-19T08:28:17;4.55;;;3.50;;
22060;SDS011;11194;48.092;-1.382;2022-08-19T08:30:44;6.13;;;3.53;;
22060;SDS011;11194;48.092;-1.382;2022-08-19T08:33:12;5.90;;;3.45;;
22060;SDS011;11194;48.092;-1.382;2022-08-19T08:35:39;4.57;;;3.28;;
22060;SDS011;11194;48.092;-1.382;2022-08-19T08:38:06;6.10;;;3.70;;
22060;SDS011;11194;48.092;-1.382;2022-08-19T08:40:38;5.10;;;3.35;;
22060;SDS011;11194;48.092;-1.382;2022-08-19T08:46:02;5.28;;;3.70;;
22060;SDS011;11194;48.092;-1.382;2022-08-19T08:48:39;6.30;;;3.65;;
22060;SDS011;11194;48.092;-1.382;2022-08-19T08:51:09;6.10;;;3.35;;
22060;SDS011;11194;48.092;-1.382;2022-08-19T08:53:36;6.28;;;3.88;;
22060;SDS011;11194;48.092;-1.382;2022-08-19T08:56:04;5.95;;;3.70;;
22060;SDS011;11194;48.092;-1.382;2022-08-19T08:58:45;5.75;;;3.50;;
22060;SDS011;11194;48.092;-1.382;2022-08-19T09:01:12;6.53;;;3.70;;
22060;SDS011;11194;48.092;-1.382;2022-08-19T09:03:40;6.20;;;3.95;;
22060;SDS011;11194;48.092;-1.382;2022-08-19T09:06:26;5.22;;;3.58;;
22060;SDS011;11194;48.092;-1.382;2022-08-19T09:11:37;4.97;;;2.95;;
22060;SDS011;11194;48.092;-1.382;2022-08-19T09:14:18;5.15;;;3.70;;
22060;SDS011;11194;48.092;-1.382;2022-08-19T09:16:46;5.78;;;3.42;;
22060;SDS011;11194;48.092;-1.382;2022-08-19T09:19:13;3.78;;;3.05;;
22060;SDS011;11194;48.092;-1.382;2022-08-19T09:21:42;4.57;;;2.80;;
22060;SDS011;11194;48.092;-1.382;2022-08-19T09:24:08;3.53;;;2.72;;
22060;SDS011;11194;48.092;-1.382;2022-08-19T09:26:34;5.03;;;3.25;;
22060;SDS011;11194;48.092;-1.382;2022-08-19T09:29:01;4.03;;;2.47;;
22060;SDS011;11194;48.092;-1.382;2022-08-19T09:31:30;4.85;;;3.13;;
22060;SDS011;11194;48.092;-1.382;2022-08-19T09:33:57;6.82;;;2.63;;
22060;SDS011;11194;48.092;-1.382;2022-08-19T09:36:24;4.00;;;2.85;;
22060;SDS011;11194;48.092;-1.382;2022-08-19T09:38:52;4.63;;;2.90;;
22060;SDS011;11194;48.092;-1.382;2022-08-19T09:41:19;4.80;;;3.05;;
22060;SDS011;11194;48.092;-1.382;2022-08-19T09:43:47;4.35;;;3.00;;
22060;SDS011;11194;48.092;-1.382;2022-08-19T09:46:16;3.88;;;2.70;;
22060;SDS011;11194;48.092;-1.382;2022-08-19T09:48:44;5.38;;;2.10;;
22060;SDS011;11194;48.092;-1.382;2022-08-19T09:51:13;3.33;;;2.10;;
22060;SDS011;11194;48.092;-1.382;2022-08-19T09:53:41;4.80;;;2.63;;
22060;SDS011;11194;48.092;-1.382;2022-08-19T09:56:07;6.35;;;2.83;;
22060;SDS011;11194;48.092;-1.382;2022-08-19T09:58:33;5.05;;;2.30;;
22060;SDS011;11194;48.092;-1.382;2022-08-19T10:01:00;5.70;;;2.47;;
22060;SDS011;11194;48.092;-1.382;2022-08-19T10:03:26;7.10;;;2.60;;
22060;SDS011;11194;48.092;-1.382;2022-08-19T10:05:53;3.80;;;2.65;;
22060;SDS011;11194;48.092;-1.382;2022-08-19T10:08:22;4.03;;;2.40;;
22060;SDS011;11194;48.092;-1.382;2022-08-19T10:10:50;5.40;;;2.55;;
22060;SDS011;11194;48.092;-1.382;2022-08-19T10:13:17;5.05;;;2.65;;
22060;SDS011;11194;48.092;-1.382;2022-08-19T10:15:47;4.55;;;2.60;;
22060;SDS011;11194;48.092;-1.382;2022-08-19T10:18:15;3.30;;;2.33;;
22060;SDS011;11194;48.092;-1.382;2022-08-19T10:20:45;4.40;;;2.25;;
22060;SDS011;11194;48.092;-1.382;2022-08-19T10:23:12;4.18;;;2.25;;
22060;SDS011;11194;48.092;-1.382;2022-08-19T10:25:38;3.15;;;2.30;;
22060;SDS011;11194;48.092;-1.382;2022-08-19T10:28:04;3.92;;;2.50;;
22060;SDS011;11194;48.092;-1.382;2022-08-19T10:30:31;5.95;;;2.92;;
22060;SDS011;11194;48.092;-1.382;2022-08-19T10:32:57;4.45;;;2.92;;
22060;SDS011;11194;48.092;-1.382;2022-08-19T10:35:23;7.43;;;2.95;;
22060;SDS011;11194;48.092;-1.382;2022-08-19T10:37:54;4.13;;;2.80;;
22060;SDS011;11194;48.092;-1.382;2022-08-19T10:40:24;5.63;;;2.40;;
22060;SDS011;11194;48.092;-1.382;2022-08-19T10:42:50;3.67;;;2.40;;
22060;SDS011;11194;48.092;-1.382;2022-08-19T10:45:16;2.53;;;1.73;;
22060;SDS011;11194;48.092;-1.382;2022-08-19T10:47:42;2.40;;;1.67;;
22060;SDS011;11194;48.092;-1.382;2022-08-19T10:50:08;1.88;;;1.60;;
22060;SDS011;11194;48.092;-1.382;2022-08-19T10:52:53;3.63;;;1.88;;
22060;SDS011;11194;48.092;-1.382;2022-08-19T10:55:20;4.07;;;1.85;;
22060;SDS011;11194;48.092;-1.382;2022-08-19T10:58:12;3.15;;;1.50;;
22060;SDS011;11194;48.092;-1.382;2022-08-19T11:00:39;3.38;;;1.77;;
22060;SDS011;11194;48.092;-1.382;2022-08-19T11:03:05;5.53;;;2.20;;
22060;SDS011;11194;48.092;-1.382;2022-08-19T11:05:31;3.88;;;1.60;;
22060;SDS011;11194;48.092;-1.382;2022-08-19T11:07:57;2.72;;;1.77;;
22060;SDS011;11194;48.092;-1.382;2022-08-19T11:10:23;2.83;;;1.70;;
22060;SDS011;11194;48.092;-1.382;2022-08-19T11:12:49;2.83;;;1.75;;
22060;SDS011;11194;48.092;-1.382;2022-08-19T11:15:19;4.32;;;1.90;;
22060;SDS011;11194;48.092;-1.382;2022-08-19T11:17:45;14.55;;;2.42;;
22060;SDS011;11194;48.092;-1.382;2022-08-19T11:20:12;6.78;;;2.55;;
22060;SDS011;11194;48.092;-1.382;2022-08-19T11:22:38;3.15;;;2.00;;
22060;SDS011;11194;48.092;-1.382;2022-08-19T11:25:05;3.90;;;2.70;;
22060;SDS011;11194;48.092;-1.382;2022-08-19T11:27:32;4.15;;;2.38;;
22060;SDS011;11194;48.092;-1.382;2022-08-19T11:29:58;2.60;;;2.00;;
22060;SDS011;11194;48.092;-1.382;2022-08-19T11:32:25;3.95;;;2.05;;
22060;SDS011;11194;48.092;-1.382;2022-08-19T11:34:51;2.25;;;1.67;;
22060;SDS011;11194;48.092;-1.382;2022-08-19T11:37:17;3.88;;;1.88;;
22060;SDS011;11194;48.092;-1.382;2022-08-19T11:39:43;4.78;;;2.05;;
22060;SDS011;11194;48.092;-1.382;2022-08-19T11:42:09;2.30;;;1.70;;
22060;SDS011;11194;48.092;-1.382;2022-08-19T11:44:54;2.58;;;1.55;;
22060;SDS011;11194;48.092;-1.382;2022-08-19T11:47:20;2.92;;;1.70;;
22060;SDS011;11194;48.092;-1.382;2022-08-19T11:49:46;2.58;;;1.60;;
22060;SDS011;11194;48.092;-1.382;2022-08-19T11:52:13;3.28;;;1.67;;
22060;SDS011;11194;48.092;-1.382;2022-08-19T11:54:39;2.20;;;1.40;;
22060;SDS011;11194;48.092;-1.382;2022-08-19T11:57:05;2.45;;;1.50;;
22060;SDS011;11194;48.092;-1.382;2022-08-19T11:59:31;2.20;;;1.42;;
22060;SDS011;11194;48.092;-1.382;2022-08-19T12:01:57;2.95;;;1.60;;
22060;SDS011;11194;48.092;-1.382;2022-08-19T12:04:24;4.43;;;1.80;;
22060;SDS011;11194;48.092;-1.382;2022-08-19T12:06:50;3.22;;;2.00;;
22060;SDS011;11194;48.092;-1.382;2022-08-19T12:09:16;3.30;;;1.75;;
22060;SDS011;11194;48.092;-1.382;2022-08-19T12:11:42;2.75;;;1.60;;
22060;SDS011;11194;48.092;-1.382;2022-08-19T12:14:10;1.98;;;1.50;;
22060;SDS011;11194;48.092;-1.382;2022-08-19T12:16:38;2.83;;;1.85;;
22060;SDS011;11194;48.092;-1.382;2022-08-19T12:19:04;3.72;;;1.88;;
22060;SDS011;11194;48.092;-1.382;2022-08-19T12:21:31;4.05;;;1.85;;
22060;SDS011;11194;48.092;-1.382;2022-08-19T12:23:58;3.20;;;1.52;;
22060;SDS011;11194;48.092;-1.382;2022-08-19T12:26:25;2.63;;;1.63;;
22060;SDS011;11194;48.092;-1.382;2022-08-19T12:28:51;2.10;;;1.70;;
22060;SDS011;11194;48.092;-1.382;2022-08-19T12:31:17;4.45;;;2.10;;
22060;SDS011;11194;48.092;-1.382;2022-08-19T12:33:45;4.15;;;1.95;;
22060;SDS011;11194;48.092;-1.382;2022-08-19T12:36:12;4.43;;;2.20;;
22060;SDS011;11194;48.092;-1.382;2022-08-19T12:38:38;6.60;;;2.15;;
22060;SDS011;11194;48.092;-1.382;2022-08-19T12:41:05;3.60;;;2.53;;
22060;SDS011;11194;48.092;-1.382;2022-08-19T12:43:35;4.47;;;2.13;;
22060;SDS011;11194;48.092;-1.382;2022-08-19T12:46:03;3.38;;;2.03;;
22060;SDS011;11194;48.092;-1.382;2022-08-19T12:48:29;5.07;;;2.15;;
22060;SDS011;11194;48.092;-1.382;2022-08-19T12:50:55;6.90;;;2.30;;
22060;SDS011;11194;48.092;-1.382;2022-08-19T12:53:21;10.20;;;2.75;;
22060;SDS011;11194;48.092;-1.382;2022-08-19T12:55:47;5.22;;;2.00;;
22060;SDS011;11194;48.092;-1.382;2022-08-19T12:58:13;6.38;;;1.90;;
22060;SDS011;11194;48.092;-1.382;2022-08-19T13:00:39;3.65;;;2.10;;
22060;SDS011;11194;48.092;-1.382;2022-08-19T13:03:06;5.15;;;2.38;;
22060;SDS011;11194;48.092;-1.382;2022-08-19T13:05:32;6.65;;;2.40;;
22060;SDS011;11194;48.092;-1.382;2022-08-19T13:07:59;4.53;;;2.80;;
22060;SDS011;11194;48.092;-1.382;2022-08-19T13:10:29;5.20;;;2.75;;
22060;SDS011;11194;48.092;-1.382;2022-08-19T13:13:00;6.78;;;2.58;;
22060;SDS011;11194;48.092;-1.382;2022-08-19T13:15:26;4.40;;;2.40;;
22060;SDS011;11194;48.092;-1.382;2022-08-19T13:17:53;3.85;;;2.28;;
22060;SDS011;11194;48.092;-1.382;2022-08-19T13:20:20;2.85;;;2.50;;
22060;SDS011;11194;48.092;-1.382;2022-08-19T13:22:47;5.30;;;2.70;;
22060;SDS011;11194;48.092;-1.382;2022-08-19T13:25:13;5.05;;;2.83;;
22060;SDS011;11194;48.092;-1.382;2022-08-19T13:27:41;4.90;;;2.63;;
22060;SDS011;11194;48.092;-1.382;2022-08-19T13:30:09;5.07;;;2.63;;
22060;SDS011;11194;48.092;-1.382;2022-08-19T13:32:53;5.97;;;2.75;;
22060;SDS011;11194;48.092;-1.382;2022-08-19T13:35:49;5.50;;;2.60;;
22060;SDS011;11194;48.092;-1.382;2022-08-19T13:38:19;5.63;;;2.50;;
22060;SDS011;11194;48.092;-1.382;2022-08-19T13:40:45;2.65;;;1.70;;
22060;SDS011;11194;48.092;-1.382;2022-08-19T13:43:12;2.38;;;1.77;;
22060;SDS011;11194;48.092;-1.382;2022-08-19T13:45:38;11.73;;;2.20;;
22060;SDS011;11194;48.092;-1.382;2022-08-19T13:48:05;3.28;;;2.10;;
22060;SDS011;11194;48.092;-1.382;2022-08-19T13:50:33;3.00;;;2.03;;
22060;SDS011;11194;48.092;-1.382;2022-08-19T13:52:59;2.65;;;1.52;;
22060;SDS011;11194;48.092;-1.382;2022-08-19T13:55:26;4.13;;;1.80;;
22060;SDS011;11194;48.092;-1.382;2022-08-19T13:57:53;2.53;;;1.80;;
22060;SDS011;11194;48.092;-1.382;2022-08-19T14:00:20;4.57;;;2.00;;
22060;SDS011;11194;48.092;-1.382;2022-08-19T14:02:46;3.55;;;1.83;;
22060;SDS011;11194;48.092;-1.382;2022-08-19T14:05:14;3.38;;;1.80;;
22060;SDS011;11194;48.092;-1.382;2022-08-19T14:07:41;3.22;;;1.60;;
22060;SDS011;11194;48.092;-1.382;2022-08-19T14:10:08;3.45;;;1.52;;
22060;SDS011;11194;48.092;-1.382;2022-08-19T14:12:35;1.92;;;1.52;;
22060;SDS011;11194;48.092;-1.382;2022-08-19T14:15:01;3.22;;;1.63;;
22060;SDS011;11194;48.092;-1.382;2022-08-19T14:17:28;2.53;;;1.20;;
22060;SDS011;11194;48.092;-1.382;2022-08-19T14:19:58;2.85;;;1.52;;
22060;SDS011;11194;48.092;-1.382;2022-08-19T14:22:28;1.83;;;1.17;;
22060;SDS011;11194;48.092;-1.382;2022-08-19T14:24:56;3.90;;;1.60;;
22060;SDS011;11194;48.092;-1.382;2022-08-19T14:27:22;1.33;;;0.60;;
22060;SDS011;11194;48.092;-1.382;2022-08-19T14:29:50;1.38;;;0.80;;
22060;SDS011;11194;48.092;-1.382;2022-08-19T14:32:16;3.33;;;0.93;;
22060;SDS011;11194;48.092;-1.382;2022-08-19T14:34:42;0.88;;;0.43;;
22060;SDS011;11194;48.092;-1.382;2022-08-19T14:37:10;1.35;;;0.57;;
22060;SDS011;11194;48.092;-1.382;2022-08-19T14:39:36;1.02;;;0.40;;
22060;SDS011;11194;48.092;-1.382;2022-08-19T14:42:06;0.50;;;0.40;;
22060;SDS011;11194;48.092;-1.382;2022-08-19T14:44:33;0.90;;;0.40;;
22060;SDS011;11194;48.092;-1.382;2022-08-19T14:46:59;0.60;;;0.30;;
22060;SDS011;11194;48.092;-1.382;2022-08-19T14:49:25;0.50;;;0.45;;
22060;SDS011;11194;48.092;-1.382;2022-08-19T14:51:51;0.95;;;0.40;;
22060;SDS011;11194;48.092;-1.382;2022-08-19T14:54:17;0.90;;;0.40;;
22060;SDS011;11194;48.092;-1.382;2022-08-19T14:56:44;1.13;;;0.52;;
22060;SDS011;11194;48.092;-1.382;2022-08-19T14:59:10;1.17;;;0.30;;
22060;SDS011;11194;48.092;-1.382;2022-08-19T15:01:36;0.40;;;0.40;;
22060;SDS011;11194;48.092;-1.382;2022-08-19T15:04:02;0.50;;;0.40;;
22060;SDS011;11194;48.092;-1.382;2022-08-19T15:06:28;0.75;;;0.47;;
22060;SDS011;11194;48.092;-1.382;2022-08-19T15:08:55;0.40;;;0.40;;
22060;SDS011;11194;48.092;-1.382;2022-08-19T15:11:22;1.67;;;0.50;;
22060;SDS011;11194;48.092;-1.382;2022-08-19T15:13:48;1.33;;;0.50;;
22060;SDS011;11194;48.092;-1.382;2022-08-19T15:16:15;1.08;;;0.57;;
22060;SDS011;11194;48.092;-1.382;2022-08-19T15:18:41;0.70;;;0.60;;
22060;SDS011;11194;48.092;-1.382;2022-08-19T15:21:11;0.68;;;0.60;;
22060;SDS011;11194;48.092;-1.382;2022-08-19T15:23:38;1.10;;;0.70;;
22060;SDS011;11194;48.092;-1.382;2022-08-19T15:26:04;1.35;;;0.63;;
22060;SDS011;11194;48.092;-1.382;2022-08-19T15:28:33;3.65;;;0.80;;
22060;SDS011;11194;48.092;-1.382;2022-08-19T15:30:59;0.90;;;0.80;;
22060;SDS011;11194;48.092;-1.382;2022-08-19T15:33:26;1.83;;;0.85;;
22060;SDS011;11194;48.092;-1.382;2022-08-19T15:35:52;1.30;;;0.95;;
22060;SDS011;11194;48.092;-1.382;2022-08-19T15:38:21;1.95;;;1.00;;
22060;SDS011;11194;48.092;-1.382;2022-08-19T15:40:48;2.03;;;1.20;;
22060;SDS011;11194;48.092;-1.382;2022-08-19T15:43:15;1.30;;;1.10;;
22060;SDS011;11194;48.092;-1.382;2022-08-19T15:45:45;2.22;;;1.27;;
22060;SDS011;11194;48.092;-1.382;2022-08-19T15:48:11;2.03;;;1.20;;
22060;SDS011;11194;48.092;-1.382;2022-08-19T15:50:38;1.80;;;1.20;;
22060;SDS011;11194;48.092;-1.382;2022-08-19T15:53:05;2.40;;;1.58;;
22060;SDS011;11194;48.092;-1.382;2022-08-19T15:55:32;3.72;;;1.50;;
22060;SDS011;11194;48.092;-1.382;2022-08-19T15:58:03;4.50;;;1.80;;
22060;SDS011;11194;48.092;-1.382;2022-08-19T16:00:48;2.70;;;1.55;;
22060;SDS011;11194;48.092;-1.382;2022-08-19T16:03:50;4.07;;;1.77;;
22060;SDS011;11194;48.092;-1.382;2022-08-19T16:06:35;2.53;;;1.65;;
22060;SDS011;11194;48.092;-1.382;2022-08-19T16:09:02;3.42;;;1.67;;
22060;SDS011;11194;48.092;-1.382;2022-08-19T16:11:30;4.25;;;1.55;;
22060;SDS011;11194;48.092;-1.382;2022-08-19T16:13:56;4.95;;;1.83;;
22060;SDS011;11194;48.092;-1.382;2022-08-19T16:16:24;3.65;;;2.00;;
22060;SDS011;11194;48.092;-1.382;2022-08-19T16:18:53;3.58;;;2.08;;
22060;SDS011;11194;48.092;-1.382;2022-08-19T16:21:19;3.70;;;1.77;;
22060;SDS011;11194;48.092;-1.382;2022-08-19T16:23:46;3.03;;;2.00;;
22060;SDS011;11194;48.092;-1.382;2022-08-19T16:26:13;4.95;;;2.00;;
22060;SDS011;11194;48.092;-1.382;2022-08-19T16:28:40;5.15;;;2.15;;
22060;SDS011;11194;48.092;-1.382;2022-08-19T16:31:07;7.88;;;2.70;;
22060;SDS011;11194;48.092;-1.382;2022-08-19T16:33:33;5.80;;;2.17;;
22060;SDS011;11194;48.092;-1.382;2022-08-19T16:35:59;4.57;;;2.03;;
22060;SDS011;11194;48.092;-1.382;2022-08-19T16:38:25;7.75;;;2.40;;
22060;SDS011;11194;48.092;-1.382;2022-08-19T16:40:52;7.55;;;2.70;;
22060;SDS011;11194;48.092;-1.382;2022-08-19T16:43:22;4.35;;;2.28;;
22060;SDS011;11194;48.092;-1.382;2022-08-19T16:45:50;6.65;;;2.50;;
22060;SDS011;11194;48.092;-1.382;2022-08-19T16:48:25;3.58;;;2.17;;
22060;SDS011;11194;48.092;-1.382;2022-08-19T16:50:51;6.85;;;2.58;;
22060;SDS011;11194;48.092;-1.382;2022-08-19T16:53:21;4.72;;;2.10;;
22060;SDS011;11194;48.092;-1.382;2022-08-19T16:55:48;6.30;;;2.35;;
22060;SDS011;11194;48.092;-1.382;2022-08-19T16:58:15;6.25;;;2.22;;
22060;SDS011;11194;48.092;-1.382;2022-08-19T17:00:43;7.78;;;2.22;;
22060;SDS011;11194;48.092;-1.382;2022-08-19T17:03:09;5.05;;;2.40;;
22060;SDS011;11194;48.092;-1.382;2022-08-19T17:05:43;5.38;;;2.70;;
22060;SDS011;11194;48.092;-1.382;2022-08-19T17:08:10;6.53;;;2.55;;
22060;SDS011;11194;48.092;-1.382;2022-08-19T17:10:36;6.05;;;2.20;;
22060;SDS011;11194;48.092;-1.382;2022-08-19T17:13:03;8.45;;;2.50;;
22060;SDS011;11194;48.092;-1.382;2022-08-19T17:15:29;6.85;;;2.70;;